sensor_id;sensor_type;location;lat;lon;timestamp;pressure;altitude;pressure_sealevel;temperature;humidity
10988;BME280;5547;42.672;23.230;2023-07-02T00:00:17;92695.97;;;14.50;100.00
10988;BME280;5547;42.672;23.230;2023-07-02T00:03:17;92723.09;;;14.62;100.00
10988;BME280;5547;42.672;23.230;2023-07-02T00:06:22;92727.22;;;14.54;100.00
10988;BME280;5547;42.672;23.230;2023-07-02T00:09:22;92725.16;;;14.58;100.00
10988;BME280;5547;42.672;23.230;2023-07-02T00:12:22;92706.09;;;14.37;100.00
10988;BME280;5547;42.672;23.230;2023-07-02T00:15:23;92708.28;;;14.29;100.00
10988;BME280;5547;42.672;23.230;2023-07-02T00:18:23;92692.06;;;14.24;100.00
10988;BME280;5547;42.672;23.230;2023-07-02T00:21:23;92677.91;;;14.05;100.00
10988;BME280;5547;42.672;23.230;2023-07-02T00:24:28;92699.88;;;14.09;100.00
10988;BME280;5547;42.672;23.230;2023-07-02T00:27:29;92668.03;;;13.83;100.00
10988;BME280;5547;42.672;23.230;2023-07-02T00:30:30;92698.19;;;13.93;100.00
10988;BME280;5547;42.672;23.230;2023-07-02T00:33:31;92714.47;;;14.08;100.00
10988;BME280;5547;42.672;23.230;2023-07-02T00:36:32;92685.69;;;13.81;100.00
10988;BME280;5547;42.672;23.230;2023-07-02T00:39:32;92726.03;;;14.05;100.00
10988;BME280;5547;42.672;23.230;2023-07-02T00:42:32;92684.38;;;13.85;100.00
10988;BME280;5547;42.672;23.230;2023-07-02T00:45:33;92738.44;;;14.30;100.00
10988;BME280;5547;42.672;23.230;2023-07-02T00:48:33;92741.75;;;14.43;100.00
10988;BME280;5547;42.672;23.230;2023-07-02T00:51:34;92749.41;;;14.63;100.00
10988;BME280;5547;42.672;23.230;2023-07-02T00:54:35;92742.28;;;14.79;100.00
10988;BME280;5547;42.672;23.230;2023-07-02T00:57:36;92737.84;;;14.94;100.00
10988;BME280;5547;42.672;23.230;2023-07-02T01:00:36;92724.47;;;15.03;100.00
10988;BME280;5547;42.672;23.230;2023-07-02T01:03:36;92723.41;;;15.10;100.00
10988;BME280;5547;42.672;23.230;2023-07-02T01:06:37;92723.50;;;15.52;100.00
10988;BME280;5547;42.672;23.230;2023-07-02T01:09:41;92725.00;;;15.72;100.00
10988;BME280;5547;42.672;23.230;2023-07-02T01:12:41;92701.16;;;15.83;100.00
10988;BME280;5547;42.672;23.230;2023-07-02T01:15:44;92717.13;;;16.11;100.00
10988;BME280;5547;42.672;23.230;2023-07-02T01:18:45;92701.38;;;16.04;100.00
10988;BME280;5547;42.672;23.230;2023-07-02T01:21:49;92693.75;;;16.35;100.00
10988;BME280;5547;42.672;23.230;2023-07-02T01:24:50;92673.16;;;16.42;100.00
10988;BME280;5547;42.672;23.230;2023-07-02T01:27:51;92665.72;;;16.36;100.00
10988;BME280;5547;42.672;23.230;2023-07-02T01:30:53;92691.38;;;16.62;100.00
10988;BME280;5547;42.672;23.230;2023-07-02T01:33:53;92683.94;;;16.56;100.00
10988;BME280;5547;42.672;23.230;2023-07-02T01:36:54;92669.00;;;16.41;100.00
10988;BME280;5547;42.672;23.230;2023-07-02T01:39:54;92687.34;;;16.33;100.00
10988;BME280;5547;42.672;23.230;2023-07-02T01:42:55;92678.75;;;15.95;100.00
10988;BME280;5547;42.672;23.230;2023-07-02T01:45:56;92704.94;;;16.01;100.00
10988;BME280;5547;42.672;23.230;2023-07-02T01:48:57;92699.09;;;15.60;100.00
10988;BME280;5547;42.672;23.230;2023-07-02T01:51:57;92704.19;;;15.48;100.00
10988;BME280;5547;42.672;23.230;2023-07-02T01:54:58;92671.19;;;15.15;100.00
10988;BME280;5547;42.672;23.230;2023-07-02T01:57:58;92678.78;;;15.07;100.00
10988;BME280;5547;42.672;23.230;2023-07-02T02:00:59;92685.31;;;15.24;100.00
10988;BME280;5547;42.672;23.230;2023-07-02T02:03:59;92694.09;;;15.16;100.00
10988;BME280;5547;42.672;23.230;2023-07-02T02:06:59;92675.09;;;14.95;100.00
10988;BME280;5547;42.672;23.230;2023-07-02T02:10:00;92686.38;;;14.99;100.00
10988;BME280;5547;42.672;23.230;2023-07-02T02:13:00;92672.41;;;15.04;100.00
10988;BME280;5547;42.672;23.230;2023-07-02T02:16:01;92680.16;;;14.84;100.00
10988;BME280;5547;42.672;23.230;2023-07-02T02:19:02;92602.50;;;14.38;100.00
10988;BME280;5547;42.672;23.230;2023-07-02T02:22:03;92678.50;;;14.68;100.00
10988;BME280;5547;42.672;23.230;2023-07-02T02:25:03;92661.53;;;14.80;100.00
10988;BME280;5547;42.672;23.230;2023-07-02T02:28:04;92647.72;;;14.73;100.00
10988;BME280;5547;42.672;23.230;2023-07-02T02:31:04;92638.19;;;14.81;100.00
10988;BME280;5547;42.672;23.230;2023-07-02T02:34:05;92615.16;;;14.65;100.00
10988;BME280;5547;42.672;23.230;2023-07-02T02:37:05;92642.97;;;14.77;100.00
10988;BME280;5547;42.672;23.230;2023-07-02T02:40:09;92629.59;;;14.67;100.00
10988;BME280;5547;42.672;23.230;2023-07-02T02:43:10;92653.06;;;14.73;100.00
10988;BME280;5547;42.672;23.230;2023-07-02T02:46:11;92657.69;;;14.72;100.00
10988;BME280;5547;42.672;23.230;2023-07-02T02:49:11;92652.47;;;14.59;100.00
10988;BME280;5547;42.672;23.230;2023-07-02T02:52:12;92664.94;;;14.62;100.00
10988;BME280;5547;42.672;23.230;2023-07-02T02:55:14;92667.94;;;14.83;100.00
10988;BME280;5547;42.672;23.230;2023-07-02T02:58:15;92659.91;;;14.83;100.00
10988;BME280;5547;42.672;23.230;2023-07-02T03:01:15;92674.31;;;14.95;100.00
10988;BME280;5547;42.672;23.230;2023-07-02T03:04:15;92670.31;;;14.99;100.00
10988;BME280;5547;42.672;23.230;2023-07-02T03:07:16;92668.53;;;14.87;100.00
10988;BME280;5547;42.672;23.230;2023-07-02T03:10:17;92665.25;;;14.92;100.00
10988;BME280;5547;42.672;23.230;2023-07-02T03:13:17;92667.31;;;14.88;100.00
10988;BME280;5547;42.672;23.230;2023-07-02T03:16:17;92640.72;;;14.84;100.00
10988;BME280;5547;42.672;23.230;2023-07-02T03:19:18;92637.00;;;14.73;100.00
10988;BME280;5547;42.672;23.230;2023-07-02T03:22:18;92690.38;;;14.95;100.00
10988;BME280;5547;42.672;23.230;2023-07-02T03:25:18;92665.84;;;14.78;100.00
10988;BME280;5547;42.672;23.230;2023-07-02T03:28:19;92689.03;;;14.90;100.00
10988;BME280;5547;42.672;23.230;2023-07-02T03:31:19;92702.28;;;14.94;100.00
10988;BME280;5547;42.672;23.230;2023-07-02T03:34:20;92662.13;;;14.75;100.00
10988;BME280;5547;42.672;23.230;2023-07-02T03:37:22;92672.53;;;14.82;100.00
10988;BME280;5547;42.672;23.230;2023-07-02T03:40:23;92662.44;;;14.86;100.00
10988;BME280;5547;42.672;23.230;2023-07-02T03:43:23;92695.28;;;15.15;100.00
10988;BME280;5547;42.672;23.230;2023-07-02T03:46:26;92619.75;;;14.83;100.00
10988;BME280;5547;42.672;23.230;2023-07-02T03:49:26;92667.03;;;15.23;100.00
10988;BME280;5547;42.672;23.230;2023-07-02T03:52:26;92619.69;;;15.20;100.00
10988;BME280;5547;42.672;23.230;2023-07-02T03:55:27;92640.66;;;15.30;100.00
10988;BME280;5547;42.672;23.230;2023-07-02T03:58:27;92662.69;;;15.34;100.00
10988;BME280;5547;42.672;23.230;2023-07-02T04:01:28;92699.41;;;15.43;100.00
10988;BME280;5547;42.672;23.230;2023-07-02T04:04:28;92698.25;;;15.35;100.00
10988;BME280;5547;42.672;23.230;2023-07-02T04:07:28;92667.47;;;15.21;100.00
10988;BME280;5547;42.672;23.230;2023-07-02T04:10:30;92639.97;;;15.02;100.00
10988;BME280;5547;42.672;23.230;2023-07-02T04:13:30;92679.63;;;15.31;100.00
10988;BME280;5547;42.672;23.230;2023-07-02T04:16:31;92659.59;;;14.99;100.00
10988;BME280;5547;42.672;23.230;2023-07-02T04:19:31;92636.69;;;15.07;100.00
10988;BME280;5547;42.672;23.230;2023-07-02T04:22:31;92624.22;;;14.86;100.00
10988;BME280;5547;42.672;23.230;2023-07-02T04:25:32;92734.22;;;15.80;100.00
10988;BME280;5547;42.672;23.230;2023-07-02T04:28:33;92642.06;;;14.98;100.00
10988;BME280;5547;42.672;23.230;2023-07-02T04:31:33;92706.25;;;15.53;100.00
10988;BME280;5547;42.672;23.230;2023-07-02T04:34:34;92760.88;;;15.65;100.00
10988;BME280;5547;42.672;23.230;2023-07-02T04:37:36;92685.19;;;15.09;100.00
10988;BME280;5547;42.672;23.230;2023-07-02T04:40:37;92657.81;;;14.96;100.00
10988;BME280;5547;42.672;23.230;2023-07-02T04:43:37;92685.75;;;15.32;100.00
10988;BME280;5547;42.672;23.230;2023-07-02T04:46:38;92764.84;;;15.98;100.00
10988;BME280;5547;42.672;23.230;2023-07-02T04:49:39;92699.66;;;15.73;100.00
10988;BME280;5547;42.672;23.230;2023-07-02T04:58:54;92583.78;;;14.75;100.00
10988;BME280;5547;42.672;23.230;2023-07-02T05:01:55;92627.31;;;15.03;100.00
10988;BME280;5547;42.672;23.230;2023-07-02T05:04:55;92724.66;;;15.88;100.00
10988;BME280;5547;42.672;23.230;2023-07-02T05:07:56;92755.53;;;16.17;100.00
10988;BME280;5547;42.672;23.230;2023-07-02T05:10:56;92709.78;;;15.78;100.00
10988;BME280;5547;42.672;23.230;2023-07-02T05:13:56;92779.25;;;16.52;100.00
10988;BME280;5547;42.672;23.230;2023-07-02T05:16:57;92751.22;;;16.20;100.00
10988;BME280;5547;42.672;23.230;2023-07-02T05:19:57;92722.16;;;16.18;100.00
10988;BME280;5547;42.672;23.230;2023-07-02T05:22:58;92740.50;;;16.53;100.00
10988;BME280;5547;42.672;23.230;2023-07-02T05:25:58;92757.38;;;16.44;100.00
10988;BME280;5547;42.672;23.230;2023-07-02T05:28:58;92702.75;;;16.23;100.00
10988;BME280;5547;42.672;23.230;2023-07-02T05:31:59;92714.66;;;16.31;100.00
10988;BME280;5547;42.672;23.230;2023-07-02T05:34:59;92663.91;;;15.85;100.00
10988;BME280;5547;42.672;23.230;2023-07-02T05:38:00;92785.69;;;16.78;100.00
10988;BME280;5547;42.672;23.230;2023-07-02T05:41:02;92791.78;;;17.12;100.00
10988;BME280;5547;42.672;23.230;2023-07-02T05:44:02;92797.41;;;17.14;100.00
10988;BME280;5547;42.672;23.230;2023-07-02T05:47:03;92757.47;;;16.59;100.00
10988;BME280;5547;42.672;23.230;2023-07-02T05:50:05;92649.41;;;15.92;100.00
10988;BME280;5547;42.672;23.230;2023-07-02T05:53:05;92810.38;;;17.01;100.00
10988;BME280;5547;42.672;23.230;2023-07-02T05:56:06;92600.50;;;15.64;100.00
10988;BME280;5547;42.672;23.230;2023-07-02T05:59:06;92768.00;;;16.96;100.00
10988;BME280;5547;42.672;23.230;2023-07-02T06:02:06;92665.34;;;16.68;100.00
10988;BME280;5547;42.672;23.230;2023-07-02T06:05:07;92778.72;;;17.59;100.00
10988;BME280;5547;42.672;23.230;2023-07-02T06:08:08;92527.88;;;15.86;100.00
10988;BME280;5547;42.672;23.230;2023-07-02T06:11:09;92670.38;;;16.99;100.00
10988;BME280;5547;42.672;23.230;2023-07-02T06:14:10;92709.34;;;17.33;100.00
10988;BME280;5547;42.672;23.230;2023-07-02T06:17:13;92464.91;;;15.81;100.00
10988;BME280;5547;42.672;23.230;2023-07-02T06:20:15;92574.25;;;16.25;100.00
10988;BME280;5547;42.672;23.230;2023-07-02T06:23:16;92568.41;;;16.66;100.00
10988;BME280;5547;42.672;23.230;2023-07-02T06:26:16;92611.50;;;17.10;100.00
10988;BME280;5547;42.672;23.230;2023-07-02T06:29:16;92773.72;;;18.41;100.00
10988;BME280;5547;42.672;23.230;2023-07-02T06:32:17;92762.47;;;18.93;100.00
10988;BME280;5547;42.672;23.230;2023-07-02T06:35:18;92493.28;;;17.10;100.00
10988;BME280;5547;42.672;23.230;2023-07-02T06:38:18;92590.91;;;18.22;100.00
10988;BME280;5547;42.672;23.230;2023-07-02T06:41:19;92587.59;;;18.13;100.00
10988;BME280;5547;42.672;23.230;2023-07-02T06:44:19;92701.88;;;19.55;100.00
10988;BME280;5547;42.672;23.230;2023-07-02T06:47:20;92685.69;;;19.08;100.00
10988;BME280;5547;42.672;23.230;2023-07-02T06:50:20;92750.41;;;19.55;100.00
10988;BME280;5547;42.672;23.230;2023-07-02T06:53:22;92765.84;;;19.55;100.00
10988;BME280;5547;42.672;23.230;2023-07-02T06:56:22;92763.81;;;19.70;100.00
10988;BME280;5547;42.672;23.230;2023-07-02T06:59:23;92764.25;;;19.01;100.00
10988;BME280;5547;42.672;23.230;2023-07-02T07:02:24;92757.66;;;18.82;100.00
10988;BME280;5547;42.672;23.230;2023-07-02T07:05:24;92731.81;;;18.55;100.00
10988;BME280;5547;42.672;23.230;2023-07-02T07:08:24;92772.84;;;19.00;100.00
10988;BME280;5547;42.672;23.230;2023-07-02T07:11:25;92730.53;;;18.85;100.00
10988;BME280;5547;42.672;23.230;2023-07-02T07:14:28;92756.19;;;19.22;100.00
10988;BME280;5547;42.672;23.230;2023-07-02T07:17:28;92686.44;;;18.47;100.00
10988;BME280;5547;42.672;23.230;2023-07-02T07:20:30;92774.19;;;19.10;100.00
10988;BME280;5547;42.672;23.230;2023-07-02T07:23:30;92735.97;;;18.91;100.00
10988;BME280;5547;42.672;23.230;2023-07-02T07:26:30;92758.28;;;19.12;100.00
10988;BME280;5547;42.672;23.230;2023-07-02T07:29:31;92774.16;;;19.30;100.00
10988;BME280;5547;42.672;23.230;2023-07-02T07:32:31;92750.00;;;18.95;100.00
10988;BME280;5547;42.672;23.230;2023-07-02T07:35:32;92731.91;;;18.60;100.00
10988;BME280;5547;42.672;23.230;2023-07-02T07:38:32;92757.88;;;18.99;100.00
10988;BME280;5547;42.672;23.230;2023-07-02T07:41:33;92729.31;;;19.07;100.00
10988;BME280;5547;42.672;23.230;2023-07-02T07:44:33;92762.53;;;19.19;100.00
10988;BME280;5547;42.672;23.230;2023-07-02T07:47:34;92757.44;;;19.26;100.00
10988;BME280;5547;42.672;23.230;2023-07-02T07:50:34;92767.59;;;19.78;100.00
10988;BME280;5547;42.672;23.230;2023-07-02T07:53:37;92771.91;;;19.96;100.00
10988;BME280;5547;42.672;23.230;2023-07-02T07:56:39;92748.75;;;19.84;100.00
10988;BME280;5547;42.672;23.230;2023-07-02T07:59:39;92761.75;;;20.11;100.00
10988;BME280;5547;42.672;23.230;2023-07-02T08:02:39;92768.78;;;20.35;100.00
10988;BME280;5547;42.672;23.230;2023-07-02T08:05:40;92778.66;;;20.75;100.00
10988;BME280;5547;42.672;23.230;2023-07-02T08:08:40;92785.41;;;20.91;100.00
10988;BME280;5547;42.672;23.230;2023-07-02T08:11:41;92782.13;;;21.30;100.00
10988;BME280;5547;42.672;23.230;2023-07-02T08:14:41;92770.88;;;21.43;100.00
10988;BME280;5547;42.672;23.230;2023-07-02T08:17:42;92750.69;;;21.38;100.00
10988;BME280;5547;42.672;23.230;2023-07-02T08:20:42;92768.78;;;21.92;100.00
10988;BME280;5547;42.672;23.230;2023-07-02T08:23:43;92774.72;;;22.08;100.00
10988;BME280;5547;42.672;23.230;2023-07-02T08:26:46;92764.63;;;22.70;100.00
10988;BME280;5547;42.672;23.230;2023-07-02T08:29:48;92777.09;;;23.18;100.00
10988;BME280;5547;42.672;23.230;2023-07-02T08:32:48;92772.38;;;23.30;100.00
10988;BME280;5547;42.672;23.230;2023-07-02T08:35:49;92787.09;;;23.99;100.00
10988;BME280;5547;42.672;23.230;2023-07-02T08:38:49;92781.03;;;23.81;100.00
10988;BME280;5547;42.672;23.230;2023-07-02T08:41:49;92747.44;;;23.84;100.00
10988;BME280;5547;42.672;23.230;2023-07-02T08:44:53;92777.81;;;23.83;100.00
10988;BME280;5547;42.672;23.230;2023-07-02T08:47:54;92757.41;;;23.01;100.00
10988;BME280;5547;42.672;23.230;2023-07-02T08:50:56;92779.88;;;23.01;100.00
10988;BME280;5547;42.672;23.230;2023-07-02T08:53:57;92766.59;;;22.58;100.00
10988;BME280;5547;42.672;23.230;2023-07-02T08:56:57;92764.13;;;22.55;100.00
10988;BME280;5547;42.672;23.230;2023-07-02T08:59:58;92771.28;;;22.52;100.00
10988;BME280;5547;42.672;23.230;2023-07-02T09:02:59;92757.41;;;23.01;100.00
10988;BME280;5547;42.672;23.230;2023-07-02T09:05:59;92755.47;;;22.90;100.00
10988;BME280;5547;42.672;23.230;2023-07-02T09:09:04;92767.16;;;23.38;100.00
10988;BME280;5547;42.672;23.230;2023-07-02T09:12:05;92747.16;;;23.88;100.00
10988;BME280;5547;42.672;23.230;2023-07-02T09:15:06;92777.13;;;24.48;100.00
10988;BME280;5547;42.672;23.230;2023-07-02T09:18:20;92757.66;;;24.69;100.00
10988;BME280;5547;42.672;23.230;2023-07-02T09:21:21;92767.66;;;25.10;100.00
10988;BME280;5547;42.672;23.230;2023-07-02T09:24:23;92691.88;;;24.95;85.12
10988;BME280;5547;42.672;23.230;2023-07-02T09:27:41;92788.06;;;26.04;77.66
10988;BME280;5547;42.672;23.230;2023-07-02T09:30:53;92799.34;;;25.94;75.88
10988;BME280;5547;42.672;23.230;2023-07-02T09:34:01;92781.19;;;25.59;67.90
10988;BME280;5547;42.672;23.230;2023-07-02T09:37:03;92765.00;;;25.67;70.83
10988;BME280;5547;42.672;23.230;2023-07-02T09:40:06;92787.00;;;26.26;70.51
10988;BME280;5547;42.672;23.230;2023-07-02T09:43:08;92758.97;;;26.44;72.00
10988;BME280;5547;42.672;23.230;2023-07-02T09:46:11;92787.06;;;26.20;67.67
10988;BME280;5547;42.672;23.230;2023-07-02T09:49:14;92729.78;;;25.12;71.25
10988;BME280;5547;42.672;23.230;2023-07-02T09:52:16;92747.69;;;25.26;67.34
10988;BME280;5547;42.672;23.230;2023-07-02T09:55:21;92768.63;;;25.56;71.68
10988;BME280;5547;42.672;23.230;2023-07-02T09:58:22;92762.72;;;25.33;64.05
10988;BME280;5547;42.672;23.230;2023-07-02T10:01:23;92772.25;;;25.21;62.42
10988;BME280;5547;42.672;23.230;2023-07-02T10:04:24;92760.66;;;25.39;62.69
10988;BME280;5547;42.672;23.230;2023-07-02T10:07:29;92768.84;;;25.58;58.83
10988;BME280;5547;42.672;23.230;2023-07-02T10:10:30;92757.00;;;25.12;64.55
10988;BME280;5547;42.672;23.230;2023-07-02T10:13:31;92743.00;;;25.27;61.42
10988;BME280;5547;42.672;23.230;2023-07-02T10:16:31;92755.00;;;25.12;57.59
10988;BME280;5547;42.672;23.230;2023-07-02T10:19:32;92723.16;;;24.83;58.05
10988;BME280;5547;42.672;23.230;2023-07-02T10:22:46;92715.94;;;24.66;62.04
10988;BME280;5547;42.672;23.230;2023-07-02T10:25:47;92722.44;;;24.82;62.99
10988;BME280;5547;42.672;23.230;2023-07-02T10:29:00;92735.41;;;25.20;64.74
10988;BME280;5547;42.672;23.230;2023-07-02T10:32:00;92710.34;;;25.02;55.65
10988;BME280;5547;42.672;23.230;2023-07-02T10:35:17;92743.22;;;25.04;54.40
10988;BME280;5547;42.672;23.230;2023-07-02T10:38:20;92708.88;;;24.77;61.49
10988;BME280;5547;42.672;23.230;2023-07-02T10:41:26;92731.47;;;25.40;55.59
10988;BME280;5547;42.672;23.230;2023-07-02T10:44:27;92733.41;;;26.15;57.36
10988;BME280;5547;42.672;23.230;2023-07-02T10:47:28;92748.47;;;26.80;59.58
10988;BME280;5547;42.672;23.230;2023-07-02T10:50:29;92750.13;;;26.70;56.46
10988;BME280;5547;42.672;23.230;2023-07-02T10:53:30;92734.84;;;27.20;52.48
10988;BME280;5547;42.672;23.230;2023-07-02T10:56:32;92724.97;;;27.17;48.54
10988;BME280;5547;42.672;23.230;2023-07-02T10:59:32;92688.84;;;26.58;56.23
10988;BME280;5547;42.672;23.230;2023-07-02T11:02:39;92731.56;;;27.49;53.20
10988;BME280;5547;42.672;23.230;2023-07-02T11:05:42;92742.63;;;27.30;56.01
10988;BME280;5547;42.672;23.230;2023-07-02T11:08:42;92732.91;;;26.75;57.03
10988;BME280;5547;42.672;23.230;2023-07-02T11:12:00;92686.75;;;27.17;55.56
10988;BME280;5547;42.672;23.230;2023-07-02T11:15:14;92678.78;;;26.79;54.09
10988;BME280;5547;42.672;23.230;2023-07-02T11:18:16;92735.34;;;27.93;48.99
10988;BME280;5547;42.672;23.230;2023-07-02T11:21:16;92744.16;;;27.99;53.92
10988;BME280;5547;42.672;23.230;2023-07-02T11:24:27;92720.06;;;27.98;53.12
10988;BME280;5547;42.672;23.230;2023-07-02T11:27:28;92747.19;;;26.04;63.26
10988;BME280;5547;42.672;23.230;2023-07-02T11:30:28;92743.81;;;24.72;67.23
10988;BME280;5547;42.672;23.230;2023-07-02T11:33:39;92755.88;;;24.47;69.25
10988;BME280;5547;42.672;23.230;2023-07-02T11:36:40;92704.81;;;23.21;73.19
10988;BME280;5547;42.672;23.230;2023-07-02T11:39:43;92755.69;;;22.86;72.69
10988;BME280;5547;42.672;23.230;2023-07-02T11:42:43;92755.41;;;23.18;74.48
10988;BME280;5547;42.672;23.230;2023-07-02T11:45:44;92727.94;;;23.39;73.54
10988;BME280;5547;42.672;23.230;2023-07-02T11:48:44;92752.16;;;23.20;72.87
10988;BME280;5547;42.672;23.230;2023-07-02T11:51:44;92744.91;;;23.51;70.89
10988;BME280;5547;42.672;23.230;2023-07-02T11:54:48;92698.81;;;22.75;77.77
10988;BME280;5547;42.672;23.230;2023-07-02T11:57:48;92744.69;;;22.39;86.13
10988;BME280;5547;42.672;23.230;2023-07-02T12:00:49;92739.50;;;22.19;99.67
10988;BME280;5547;42.672;23.230;2023-07-02T12:03:50;92711.06;;;21.24;100.00
10988;BME280;5547;42.672;23.230;2023-07-02T12:06:50;92730.47;;;21.17;100.00
10988;BME280;5547;42.672;23.230;2023-07-02T12:09:51;92729.03;;;21.38;100.00
10988;BME280;5547;42.672;23.230;2023-07-02T12:12:52;92734.78;;;21.63;100.00
10988;BME280;5547;42.672;23.230;2023-07-02T12:15:52;92745.91;;;22.10;100.00
10988;BME280;5547;42.672;23.230;2023-07-02T12:18:53;92743.94;;;22.56;100.00
10988;BME280;5547;42.672;23.230;2023-07-02T12:21:53;92732.00;;;22.98;100.00
10988;BME280;5547;42.672;23.230;2023-07-02T12:24:53;92745.75;;;23.70;100.00
10988;BME280;5547;42.672;23.230;2023-07-02T12:27:56;92701.59;;;23.28;100.00
10988;BME280;5547;42.672;23.230;2023-07-02T12:30:56;92697.69;;;23.18;100.00
10988;BME280;5547;42.672;23.230;2023-07-02T12:33:57;92731.31;;;22.92;100.00
10988;BME280;5547;42.672;23.230;2023-07-02T12:36:58;92724.88;;;22.90;100.00
10988;BME280;5547;42.672;23.230;2023-07-02T12:39:58;92744.38;;;22.88;100.00
10988;BME280;5547;42.672;23.230;2023-07-02T12:42:58;92623.06;;;22.30;100.00
10988;BME280;5547;42.672;23.230;2023-07-02T12:45:59;92645.06;;;22.79;100.00
10988;BME280;5547;42.672;23.230;2023-07-02T12:49:00;92681.28;;;23.82;100.00
10988;BME280;5547;42.672;23.230;2023-07-02T12:52:01;92704.00;;;24.15;97.27
10988;BME280;5547;42.672;23.230;2023-07-02T12:55:01;92694.69;;;24.35;93.79
10988;BME280;5547;42.672;23.230;2023-07-02T12:58:02;92737.34;;;24.15;94.64
10988;BME280;5547;42.672;23.230;2023-07-02T13:01:02;92726.41;;;23.90;88.58
10988;BME280;5547;42.672;23.230;2023-07-02T13:04:03;92735.50;;;23.99;87.13
10988;BME280;5547;42.672;23.230;2023-07-02T13:07:04;92741.53;;;24.52;77.97
10988;BME280;5547;42.672;23.230;2023-07-02T13:10:05;92651.63;;;23.89;83.78
10988;BME280;5547;42.672;23.230;2023-07-02T13:13:05;92727.81;;;24.63;82.86
10988;BME280;5547;42.672;23.230;2023-07-02T13:16:06;92725.44;;;23.88;83.64
10988;BME280;5547;42.672;23.230;2023-07-02T13:19:06;92719.94;;;23.52;87.32
10988;BME280;5547;42.672;23.230;2023-07-02T13:22:07;92720.09;;;23.24;84.37
10988;BME280;5547;42.672;23.230;2023-07-02T13:25:08;92719.34;;;23.23;86.72
10988;BME280;5547;42.672;23.230;2023-07-02T13:28:08;92696.53;;;22.91;92.75
10988;BME280;5547;42.672;23.230;2023-07-02T13:31:09;92713.78;;;22.93;92.42
10988;BME280;5547;42.672;23.230;2023-07-02T13:34:11;92711.41;;;22.50;100.00
10988;BME280;5547;42.672;23.230;2023-07-02T13:37:11;92696.91;;;22.25;100.00
10988;BME280;5547;42.672;23.230;2023-07-02T13:40:12;92672.06;;;21.81;100.00
10988;BME280;5547;42.672;23.230;2023-07-02T13:43:12;92683.88;;;21.78;100.00
10988;BME280;5547;42.672;23.230;2023-07-02T13:46:13;92617.88;;;21.25;100.00
10988;BME280;5547;42.672;23.230;2023-07-02T13:49:14;92698.13;;;21.62;100.00
10988;BME280;5547;42.672;23.230;2023-07-02T13:52:14;92701.56;;;21.57;100.00
10988;BME280;5547;42.672;23.230;2023-07-02T13:55:15;92715.31;;;21.53;100.00
10988;BME280;5547;42.672;23.230;2023-07-02T13:58:15;92707.84;;;21.20;100.00
10988;BME280;5547;42.672;23.230;2023-07-02T14:01:16;92721.47;;;20.88;100.00
10988;BME280;5547;42.672;23.230;2023-07-02T14:04:17;92708.09;;;20.68;100.00
10988;BME280;5547;42.672;23.230;2023-07-02T14:07:18;92599.63;;;19.57;100.00
10988;BME280;5547;42.672;23.230;2023-07-02T14:10:19;92693.38;;;19.94;100.00
10988;BME280;5547;42.672;23.230;2023-07-02T14:13:19;92689.69;;;19.39;100.00
10988;BME280;5547;42.672;23.230;2023-07-02T14:16:19;92695.06;;;19.13;100.00
10988;BME280;5547;42.672;23.230;2023-07-02T14:19:20;92683.34;;;19.16;100.00
10988;BME280;5547;42.672;23.230;2023-07-02T14:22:20;92674.28;;;18.93;100.00
10988;BME280;5547;42.672;23.230;2023-07-02T14:25:21;92675.16;;;18.84;100.00
10988;BME280;5547;42.672;23.230;2023-07-02T14:28:21;92651.63;;;18.85;100.00
10988;BME280;5547;42.672;23.230;2023-07-02T14:31:22;92692.91;;;19.17;100.00
10988;BME280;5547;42.672;23.230;2023-07-02T14:34:22;92695.72;;;19.28;100.00
10988;BME280;5547;42.672;23.230;2023-07-02T14:37:23;92691.44;;;19.16;100.00
10988;BME280;5547;42.672;23.230;2023-07-02T14:40:23;92702.47;;;19.18;100.00
10988;BME280;5547;42.672;23.230;2023-07-02T14:43:27;92679.75;;;19.25;100.00
10988;BME280;5547;42.672;23.230;2023-07-02T14:46:28;92713.72;;;19.89;100.00
10988;BME280;5547;42.672;23.230;2023-07-02T14:49:29;92721.41;;;20.02;100.00
10988;BME280;5547;42.672;23.230;2023-07-02T14:52:29;92731.69;;;20.62;100.00
10988;BME280;5547;42.672;23.230;2023-07-02T14:55:30;92736.34;;;21.21;100.00
10988;BME280;5547;42.672;23.230;2023-07-02T14:58:31;92748.31;;;21.63;100.00
10988;BME280;5547;42.672;23.230;2023-07-02T15:01:32;92745.38;;;21.72;100.00
10988;BME280;5547;42.672;23.230;2023-07-02T15:04:33;92703.06;;;21.92;100.00
10988;BME280;5547;42.672;23.230;2023-07-02T15:07:33;92750.31;;;22.70;100.00
10988;BME280;5547;42.672;23.230;2023-07-02T15:10:35;92746.53;;;23.18;100.00
10988;BME280;5547;42.672;23.230;2023-07-02T15:13:38;92745.25;;;23.24;100.00
10988;BME280;5547;42.672;23.230;2023-07-02T15:16:38;92757.88;;;23.16;100.00
10988;BME280;5547;42.672;23.230;2023-07-02T15:19:39;92735.38;;;23.27;100.00
10988;BME280;5547;42.672;23.230;2023-07-02T15:22:39;92755.16;;;23.16;100.00
10988;BME280;5547;42.672;23.230;2023-07-02T15:25:40;92751.28;;;22.83;100.00
10988;BME280;5547;42.672;23.230;2023-07-02T15:28:40;92721.75;;;22.57;100.00
10988;BME280;5547;42.672;23.230;2023-07-02T15:31:40;92634.16;;;21.48;100.00
10988;BME280;5547;42.672;23.230;2023-07-02T15:34:45;92738.47;;;21.71;100.00
10988;BME280;5547;42.672;23.230;2023-07-02T15:37:46;92733.28;;;21.51;100.00
10988;BME280;5547;42.672;23.230;2023-07-02T15:40:48;92708.78;;;21.06;100.00
10988;BME280;5547;42.672;23.230;2023-07-02T15:43:48;92752.34;;;21.25;100.00
10988;BME280;5547;42.672;23.230;2023-07-02T15:46:49;92725.94;;;20.91;100.00
10988;BME280;5547;42.672;23.230;2023-07-02T15:49:50;92741.66;;;20.93;100.00
10988;BME280;5547;42.672;23.230;2023-07-02T15:52:50;92718.13;;;20.56;100.00
10988;BME280;5547;42.672;23.230;2023-07-02T15:55:57;92739.16;;;20.46;100.00